Flight Track Log - Related Links

Times and Time Zones

All times are in EDT time to prevent confusion due to time zone crossing. See the UAL4180 flight status page for this flight to view local times or setup timezone preferences in your user account.

Time Position Orientation Groundspeed Altitude Reporting Facility
EDT Latitude Longitude Course Direction KTS MPH feet Rate Location/Type
Thu 12:12:06 29.9764 -95.2983 30° Northeast 207 238 800  Level Houston Center
Thu 12:13:20 30.0328 -95.2722 22° Northeast 227 261 2,600 1,613 Climbing Houston Center
Thu 12:14:05 30.0831 -95.2611 11° North 223 257 4,000 1,377 Climbing Houston Center
Thu 12:14:21 30.1008 -95.2567 12° North 249 287 4,000 484 Level Houston Center
Thu 12:15:00 30.4069 -95.1632 23° Northeast  Level FlightAware Approximate
Thu 12:15:07 30.1506 -95.2422 14° North 243 280 4,500  Level Houston Center
Thu 12:15:22 30.1722 -95.2336 19° North 250 288 5,100 1,839 Climbing Houston Center
Thu 12:16:00 30.5078 -95.1053 27° Northeast  Level FlightAware Approximate
Thu 12:16:09 30.2186 -95.2156 19° North 257 296 6,400  Level Houston Center
Thu 12:17:00 30.6055 -95.0463 30° Northeast  Level FlightAware Approximate
Thu 12:17:11 30.2931 -95.1881 18° North 276 318 8,600  Level Houston Center
Thu 12:18:13 30.3686 -95.1586 19° North 284 327 10,500 1,258 Climbing Houston Center
Thu 12:19:15 30.4611 -95.1189 20° North 317 365 11,200 864 Climbing Houston Center
Thu 12:20:18 30.5575 -95.0783 20° North 360 414 12,300 1,200 Climbing Houston Center
Thu 12:21:20 30.6519 -95.0317 23° Northeast 366 421 13,700 1,500 Climbing Houston Center
Thu 12:22:22 30.7625 -94.9639 28° Northeast 373 429 15,400 1,355 Climbing Houston Center
Thu 12:23:24 30.8539 -94.9072 28° Northeast 371 427 16,500 1,065 Climbing Houston Center
Thu 12:24:26 30.9464 -94.8503 28° Northeast 372 428 17,600 871 Climbing Houston Center
Thu 12:25:28 31.0453 -94.7900 28° Northeast 381 438 18,300 774 Climbing Houston Center
Thu 12:26:30 31.1347 -94.7342 28° Northeast 367 422 19,200 927 Climbing Fort Worth Center
Thu 12:27:31 31.2317 -94.6706 29° Northeast 381 438 20,200 942 Climbing Fort Worth Center
Thu 12:28:31 31.3242 -94.6047 31° Northeast 387 445 21,100 950 Climbing Fort Worth Center
Thu 12:29:31 31.4350 -94.5283 30° Northeast 404 465 22,100 958 Climbing Fort Worth Center
Thu 12:30:30 31.5336 -94.4617 30° Northeast 409 471 23,000 1,050 Climbing Fort Worth Center
Thu 12:31:31 31.6322 -94.3928 31° Northeast 409 471 24,200 1,041 Climbing Fort Worth Center
Thu 12:32:31 31.7308 -94.3236 31° Northeast 409 471 25,100 1,050 Climbing Fort Worth Center
Thu 12:33:31 31.8294 -94.2567 30° Northeast 409 471 26,300 1,550 Climbing Fort Worth Center
Thu 12:34:31 31.9258 -94.1872 31° Northeast 409 471 28,200 1,800 Climbing Fort Worth Center
Thu 12:35:31 32.0181 -94.1253 30° Northeast 396 456 29,900 1,550 Climbing Fort Worth Center
Thu 12:36:31 32.1042 -94.0633 31° Northeast 375 432 31,300 1,050 Climbing Fort Worth Center
Thu 12:37:31 32.1736 -94.0117 32° Northeast 369 425 32,000 807 Climbing Fort Worth Center
Thu 12:38:30 32.2719 -93.9417 31° Northeast 369 425 32,900 504 Climbing Fort Worth Center
Thu 12:39:30 32.3661 -93.8717 32° Northeast 374 430 33,000 50 Climbing Fort Worth Center
Thu 12:40:31 32.4706 -93.7986 31° Northeast 399 459 33,000  Level Fort Worth Center
Thu 12:41:30 32.5789 -93.7203 31° Northeast 430 495 33,000 252 Level Fort Worth Center
Thu 12:42:30 32.6933 -93.6392 31° Northeast 456 525 33,500 694 Climbing Fort Worth Center
Thu 12:43:31 32.8036 -93.5603 31° Northeast 462 532 34,400 744 Climbing Fort Worth Center
Thu 12:44:31 32.9119 -93.4839 31° Northeast 457 526 35,000 303 Climbing Fort Worth Center
Thu 12:45:30 33.0219 -93.4022 32° Northeast 457 526 35,000  Level Fort Worth Center
Thu 12:47:57 33.3100 -93.1958 31° Northeast 459 528 35,000  Level Memphis Center
Thu 12:48:57 33.4181 -93.1147 32° Northeast 459 528 35,000  Level Memphis Center
Thu 12:49:57 33.5306 -93.0336 31° Northeast 464 534 35,000  Level Memphis Center
Thu 12:50:57 33.6408 -92.9547 31° Northeast 464 534 35,000  Level Memphis Center
Thu 12:51:57 33.7508 -92.8781 30° Northeast 464 534 35,000  Level Memphis Center
Thu 12:52:57 33.8611 -92.7961 32° Northeast 459 528 35,000  Level Memphis Center
Thu 12:53:57 33.9711 -92.7142 32° Northeast 459 528 35,000  Level Memphis Center
Thu 12:54:57 34.0831 -92.6344 31° Northeast 459 528 35,000  Level Memphis Center
Thu 12:55:57 34.1931 -92.5519 32° Northeast 465 535 35,000  Level Memphis Center
Thu 12:56:57 34.3008 -92.4717 32° Northeast 465 535 35,000  Level Memphis Center
Thu 12:57:57 34.4108 -92.3886 32° Northeast 460 529 35,000  Level Memphis Center
Thu 12:58:57 34.5206 -92.3108 30° Northeast 460 529 35,000  Level Memphis Center
Thu 12:59:57 34.6283 -92.2247 33° Northeast 460 529 35,000  Level Memphis Center
Thu 13:00:57 34.7461 -92.1642 23° Northeast 453 521 35,000  Level Memphis Center
Thu 13:01:57 34.8594 -92.1161 19° North 438 504 35,000  Level Memphis Center
Thu 13:02:57 34.9622 -92.0725 19° North 438 504 35,000  Level Memphis Center
Thu 13:03:57 35.0797 -92.0292 17° North 432 497 35,000  Level Memphis Center
Thu 13:04:57 35.2075 -91.9783 18° North 432 497 35,000  Level Memphis Center
Thu 13:05:57 35.3208 -91.9322 18° North 440 506 35,000  Level Memphis Center
Thu 13:06:57 35.4425 -91.8861 17° North 440 506 35,000  Level Memphis Center
Thu 13:07:57 35.5575 -91.8397 18° North 427 491 35,000  Level Memphis Center
Thu 13:08:57 35.6667 -91.7983 17° North 432 497 35,000  Level Memphis Center
Thu 13:10:54 35.8761 -91.7125 18° North 433 498 35,000  Level Kansas City Center
Thu 13:11:55 35.9931 -91.6689 17° North 436 502 35,000  Level Kansas City Center
Thu 13:12:59 36.1217 -91.6150 19° North 437 503 35,000  Level Kansas City Center
Thu 13:13:57 36.2425 -91.5689 17° North 429 494 35,000  Level Memphis Center
Thu 13:14:57 36.3428 -91.5292 18° North 429 494 35,000  Level Memphis Center
Thu 13:15:57 36.4600 -91.4844 17° North 429 494 35,000  Level Memphis Center
Thu 13:16:57 36.5875 -91.4319 18° North 429 494 35,000  Level Memphis Center
Thu 13:19:10 36.8375 -91.3275 18° North 436 502 35,000  Level Kansas City Center
Thu 13:20:11 36.9519 -91.2831 17° North 431 496 35,000  Level Kansas City Center
Thu 13:21:15 37.0667 -91.2350 18° North 433 498 35,000  Level Kansas City Center
Thu 13:22:16 37.1844 -91.1836 19° North 440 506 35,000  Level Kansas City Center
Thu 13:23:20 37.2986 -91.1386 17° North 434 499 35,000  Level Kansas City Center
Thu 13:24:21 37.4378 -91.0811 18° North 435 501 35,000  Level Kansas City Center
Thu 13:25:22 37.5533 -91.0342 18° North 436 502 35,000  Level Kansas City Center
Thu 13:26:25 37.6728 -90.9836 19° North 437 503 35,000  Level Kansas City Center
Thu 13:27:26 37.7886 -90.9361 18° North 436 502 35,000  Level Kansas City Center
Thu 13:28:29 37.9036 -90.8889 18° North 436 502 35,000  Level Kansas City Center
Thu 13:29:31 38.0189 -90.8397 19° North 437 503 35,000  Level Kansas City Center
Thu 13:30:32 38.1342 -90.7911 18° North 436 502 35,000  Level Kansas City Center
Thu 13:31:34 38.2489 -90.7419 19° North 436 502 35,000  Level Kansas City Center
Thu 13:32:37 38.3861 -90.6850 18° North 432 497 35,000  Level Kansas City Center
Thu 13:33:38 38.4961 -90.6386 18° North 431 496 35,000  Level Kansas City Center
Thu 13:34:41 38.6056 -90.5919 18° North 420 483 35,000  Level Kansas City Center
Thu 13:35:42 38.7081 -90.5492 18° North 396 456 35,000  Level Kansas City Center
Thu 13:36:45 38.8114 -90.5056 18° North 390 449 35,000  Level Kansas City Center
Thu 13:37:46 38.9314 -90.4261 27° Northeast 411 473 35,000  Level Kansas City Center
Thu 13:38:50 39.0214 -90.3528 32° Northeast 422 486 35,000  Level Kansas City Center
Thu 13:39:52 39.1244 -90.2686 32° Northeast 433 498 35,000  Level Kansas City Center
Thu 13:40:53 39.2269 -90.1847 32° Northeast 436 502 35,000  Level Kansas City Center
Thu 13:41:56 39.3525 -90.0814 32° Northeast 442 509 35,000  Level Kansas City Center
Thu 13:42:58 39.4564 -89.9953 33° Northeast 444 511 35,000  Level Kansas City Center
Thu 13:43:59 39.5603 -89.9094 32° Northeast 443 510 35,000  Level Kansas City Center
Thu 13:45:02 39.6628 -89.8233 33° Northeast 440 506 35,000  Level Kansas City Center
Thu 13:46:03 39.7633 -89.7389 33° Northeast 442 509 35,000  Level Kansas City Center
Thu 13:47:07 39.8850 -89.6358 33° Northeast 438 504 35,000  Level Kansas City Center
Thu 13:47:34 39.9239 -89.5992 36° Northeast 439 505 35,000  Level Chicago Center
Thu 13:48:36 40.0219 -89.5044 36° Northeast 441 507 35,000  Level Chicago Center
Thu 13:49:38 40.1203 -89.4117 36° Northeast 439 505 35,000  Level Chicago Center
Thu 13:50:40 40.2386 -89.2983 36° Northeast 441 507 35,000  Level Chicago Center
Thu 13:51:42 40.3372 -89.2031 36° Northeast 442 509 35,000  Level Chicago Center
Thu 13:52:44 40.4361 -89.1081 36° Northeast 443 510 35,000 -145 Level Chicago Center
Thu 13:53:46 40.5353 -89.0125 36° Northeast 444 511 34,700 -629 Descending Chicago Center
Thu 13:54:48 40.6358 -88.9128 37° Northeast 453 521 33,700 -823 Descending Chicago Center
Thu 13:55:50 40.7461 -88.8061 36° Northeast 443 510 33,000 -339 Descending Chicago Center
Thu 13:56:52 40.8439 -88.7194 34° Northeast 428 493 33,000  Level Chicago Center
Thu 13:57:54 40.9508 -88.6606 23° Northeast 417 480 33,000  Level Chicago Center
Thu 13:58:56 41.0803 -88.5844 24° Northeast 423 487 33,000  Level Chicago Center
Thu 13:59:58 41.1903 -88.5217 23° Northeast 429 494 33,000 -145 Level Chicago Center
Thu 14:01:00 41.3006 -88.4586 23° Northeast 430 495 32,700 -1,355 Descending Chicago Center
Thu 14:02:02 41.4108 -88.3953 23° Northeast 430 495 30,200 -2,516 Descending Chicago Center
Thu 14:03:04 41.5217 -88.3308 24° Northeast 430 495 27,500 -2,323 Descending Chicago Center
Thu 14:04:06 41.6344 -88.3167 North 403 464 25,400 -1,887 Descending Chicago Center
Thu 14:05:08 41.7461 -88.3142 North 401 461 23,600 -1,935 Descending Chicago Center
Thu 14:06:10 41.8814 -88.3133 360° North 401 461 21,400 -1,935 Descending Chicago Center
Thu 14:07:12 41.9900 -88.3125 360° North 391 450 19,600 -1,645 Descending Chicago Center
Thu 14:08:14 42.0972 -88.3106 North 386 444 18,000 -1,258 Descending Chicago Center
Thu 14:09:16 42.2000 -88.3103 360° North 374 430 17,000 -871 Descending Chicago Center
Thu 14:10:18 42.3028 -88.3078 North 371 427 16,200 -1,694 Descending Chicago Center
Thu 14:11:20 42.4056 -88.3075 360° North 355 409 13,500 -2,371 Descending Chicago Center
Thu 14:12:22 42.5131 -88.3072 360° North 334 384 11,300 -1,548 Descending Chicago Center
Thu 14:13:24 42.6042 -88.3058 North 326 375 10,300 -629 Descending Chicago Center
Thu 14:14:26 42.6981 -88.3044 North 335 386 10,000 -145 Descending Chicago Center
Thu 14:15:28 42.7692 -88.2472 31° Northeast 321 369 10,000 -581 Level Chicago Center
Thu 14:16:30 42.7942 -88.1453 71° East 284 327 8,800 -1,403 Descending Chicago Center
Thu 14:17:32 42.8244 -88.0344 70° East 270 311 7,100 -871 Descending Chicago Center
Thu 14:18:34 42.8500 -87.9394 70° East 267 307 7,000 -290 Descending Chicago Center
Thu 14:19:36 42.8719 -87.8553 70° East 241 277 6,500 -1,355 Descending Chicago Center
Thu 14:20:38 42.8931 -87.7783 69° East 223 257 4,200 -1,548 Descending Chicago Center
Thu 14:21:40 42.9325 -87.7414 34° Northeast 210 242 3,300 -871 Descending Chicago Center

Login

Don't have an account? Register now (free) for customized features, flight alerts, and more!